sensor_id;sensor_type;location;lat;lon;timestamp;pressure;altitude;pressure_sealevel;temperature
79756;BMP280;69239;50.678;12.280;2024-02-16T00:01:36;97545.00;;;10.38
79756;BMP280;69239;50.678;12.280;2024-02-16T00:04:02;97536.31;;;10.38
79756;BMP280;69239;50.678;12.280;2024-02-16T00:06:27;97540.50;;;10.39
79756;BMP280;69239;50.678;12.280;2024-02-16T00:08:52;97532.63;;;10.39
79756;BMP280;69239;50.678;12.280;2024-02-16T00:11:18;97531.06;;;10.38
79756;BMP280;69239;50.678;12.280;2024-02-16T00:13:43;97530.31;;;10.37
79756;BMP280;69239;50.678;12.280;2024-02-16T00:16:08;97525.38;;;10.36
79756;BMP280;69239;50.678;12.280;2024-02-16T00:18:34;97516.69;;;10.35
79756;BMP280;69239;50.678;12.280;2024-02-16T00:20:59;97519.00;;;10.37
79756;BMP280;69239;50.678;12.280;2024-02-16T00:23:26;97526.91;;;10.37
79756;BMP280;69239;50.678;12.280;2024-02-16T00:25:52;97534.03;;;10.36
79756;BMP280;69239;50.678;12.280;2024-02-16T00:28:17;97531.69;;;10.35
79756;BMP280;69239;50.678;12.280;2024-02-16T00:30:43;97521.47;;;10.33
79756;BMP280;69239;50.678;12.280;2024-02-16T00:33:08;97526.91;;;10.37
79756;BMP280;69239;50.678;12.280;2024-02-16T00:35:33;97519.00;;;10.37
79756;BMP280;69239;50.678;12.280;2024-02-16T00:37:59;97512.19;;;10.36
79756;BMP280;69239;50.678;12.280;2024-02-16T00:40:25;97508.31;;;10.33
79756;BMP280;69239;50.678;12.280;2024-02-16T00:42:51;97513.75;;;10.37
79756;BMP280;69239;50.678;12.280;2024-02-16T00:45:17;97512.19;;;10.36
79756;BMP280;69239;50.678;12.280;2024-02-16T00:47:42;97505.38;;;10.35
79756;BMP280;69239;50.678;12.280;2024-02-16T00:50:10;97513.56;;;10.33
79756;BMP280;69239;50.678;12.280;2024-02-16T00:52:36;97512.78;;;10.32
79756;BMP280;69239;50.678;12.280;2024-02-16T00:55:02;97510.16;;;10.32
79756;BMP280;69239;50.678;12.280;2024-02-16T00:57:29;97506.75;;;10.32
79756;BMP280;69239;50.678;12.280;2024-02-16T00:59:54;97504.44;;;10.30
79756;BMP280;69239;50.678;12.280;2024-02-16T01:02:20;97505.19;;;10.31
79756;BMP280;69239;50.678;12.280;2024-02-16T01:04:45;97514.34;;;10.34
79756;BMP280;69239;50.678;12.280;2024-02-16T01:07:12;97501.97;;;10.34
79756;BMP280;69239;50.678;12.280;2024-02-16T01:09:37;97495.91;;;10.34
79756;BMP280;69239;50.678;12.280;2024-02-16T01:12:03;97499.31;;;10.34
79756;BMP280;69239;50.678;12.280;2024-02-16T01:14:28;97502.47;;;10.36
79756;BMP280;69239;50.678;12.280;2024-02-16T01:16:53;97494.84;;;10.35
79756;BMP280;69239;50.678;12.280;2024-02-16T01:19:19;97497.97;;;10.37
79756;BMP280;69239;50.678;12.280;2024-02-16T01:21:44;97497.97;;;10.37
79756;BMP280;69239;50.678;12.280;2024-02-16T01:24:12;97499.47;;;10.38
79756;BMP280;69239;50.678;12.280;2024-02-16T01:26:38;97501.03;;;10.39
79756;BMP280;69239;50.678;12.280;2024-02-16T01:29:03;97498.75;;;10.37
79756;BMP280;69239;50.678;12.280;2024-02-16T01:31:29;97492.69;;;10.37
79756;BMP280;69239;50.678;12.280;2024-02-16T01:33:54;97493.47;;;10.37
79756;BMP280;69239;50.678;12.280;2024-02-16T01:36:19;97497.00;;;10.32
79756;BMP280;69239;50.678;12.280;2024-02-16T01:38:45;97494.84;;;10.35
79756;BMP280;69239;50.678;12.280;2024-02-16T01:41:10;97487.44;;;10.37
79756;BMP280;69239;50.678;12.280;2024-02-16T01:43:36;97492.69;;;10.37
79756;BMP280;69239;50.678;12.280;2024-02-16T01:46:01;97487.44;;;10.37
79756;BMP280;69239;50.678;12.280;2024-02-16T01:48:27;97490.06;;;10.37
79756;BMP280;69239;50.678;12.280;2024-02-16T01:50:53;97488.97;;;10.38
79756;BMP280;69239;50.678;12.280;2024-02-16T01:53:20;97496.25;;;10.41
79756;BMP280;69239;50.678;12.280;2024-02-16T01:55:46;97487.09;;;10.38
79756;BMP280;69239;50.678;12.280;2024-02-16T01:58:11;97490.50;;;10.39
79756;BMP280;69239;50.678;12.280;2024-02-16T02:00:37;97486.03;;;10.39
79756;BMP280;69239;50.678;12.280;2024-02-16T02:03:03;97476.72;;;10.33
79756;BMP280;69239;50.678;12.280;2024-02-16T02:05:28;97481.69;;;10.35
79756;BMP280;69239;50.678;12.280;2024-02-16T02:07:54;97481.69;;;10.35
79756;BMP280;69239;50.678;12.280;2024-02-16T02:10:20;97488.63;;;10.30
79756;BMP280;69239;50.678;12.280;2024-02-16T02:12:47;97494.69;;;10.31
79756;BMP280;69239;50.678;12.280;2024-02-16T02:15:12;97491.59;;;10.29
79756;BMP280;69239;50.678;12.280;2024-02-16T02:17:38;97490.06;;;10.28
79756;BMP280;69239;50.678;12.280;2024-02-16T02:20:04;97494.03;;;10.25
79756;BMP280;69239;50.678;12.280;2024-02-16T02:22:33;97482.28;;;10.23
79756;BMP280;69239;50.678;12.280;2024-02-16T02:24:58;97483.97;;;10.19
79756;BMP280;69239;50.678;12.280;2024-02-16T02:27:24;97480.44;;;10.23
79756;BMP280;69239;50.678;12.280;2024-02-16T02:29:50;97477.78;;;10.23
79756;BMP280;69239;50.678;12.280;2024-02-16T02:32:16;97470.19;;;10.22
79756;BMP280;69239;50.678;12.280;2024-02-16T02:34:42;97470.97;;;10.22
79756;BMP280;69239;50.678;12.280;2024-02-16T02:37:08;97472.06;;;10.21
79756;BMP280;69239;50.678;12.280;2024-02-16T02:39:34;97470.38;;;10.25
79756;BMP280;69239;50.678;12.280;2024-02-16T02:41:59;97470.56;;;10.29
79756;BMP280;69239;50.678;12.280;2024-02-16T02:44:25;97464.66;;;10.32
79756;BMP280;69239;50.678;12.280;2024-02-16T02:46:51;97469.13;;;10.31
79756;BMP280;69239;50.678;12.280;2024-02-16T02:49:17;97470.09;;;10.36
79756;BMP280;69239;50.678;12.280;2024-02-16T02:51:43;97461.72;;;10.34
79756;BMP280;69239;50.678;12.280;2024-02-16T02:54:08;97472.56;;;10.41
79756;BMP280;69239;50.678;12.280;2024-02-16T02:56:33;97470.41;;;10.43
79756;BMP280;69239;50.678;12.280;2024-02-16T02:58:59;97468.25;;;10.45
79756;BMP280;69239;50.678;12.280;2024-02-16T03:01:24;97470.88;;;10.45
79756;BMP280;69239;50.678;12.280;2024-02-16T03:03:50;97466.69;;;10.44
79756;BMP280;69239;50.678;12.280;2024-02-16T03:06:19;97471.19;;;10.43
79756;BMP280;69239;50.678;12.280;2024-02-16T03:08:44;97468.25;;;10.45
79756;BMP280;69239;50.678;12.280;2024-02-16T03:11:10;97469.81;;;10.46
79756;BMP280;69239;50.678;12.280;2024-02-16T03:13:36;97464.53;;;10.46
79756;BMP280;69239;50.678;12.280;2024-02-16T03:16:01;97470.41;;;10.43
79756;BMP280;69239;50.678;12.280;2024-02-16T03:18:29;97471.31;;;10.47
79756;BMP280;69239;50.678;12.280;2024-02-16T03:20:55;97467.47;;;10.44
79756;BMP280;69239;50.678;12.280;2024-02-16T03:23:21;97469.81;;;10.46
79756;BMP280;69239;50.678;12.280;2024-02-16T03:25:46;97461.13;;;10.45
79756;BMP280;69239;50.678;12.280;2024-02-16T03:28:12;97470.25;;;10.48
79756;BMP280;69239;50.678;12.280;2024-02-16T03:30:38;97464.97;;;10.48
79756;BMP280;69239;50.678;12.280;2024-02-16T03:33:04;97464.97;;;10.48
79756;BMP280;69239;50.678;12.280;2024-02-16T03:35:29;97458.66;;;10.49
79756;BMP280;69239;50.678;12.280;2024-02-16T03:37:55;97456.03;;;10.49
79756;BMP280;69239;50.678;12.280;2024-02-16T03:40:22;97451.81;;;10.48
79756;BMP280;69239;50.678;12.280;2024-02-16T03:42:47;97457.56;;;10.50
79756;BMP280;69239;50.678;12.280;2024-02-16T03:45:13;97459.13;;;10.51
79756;BMP280;69239;50.678;12.280;2024-02-16T03:47:40;97456.03;;;10.49
79756;BMP280;69239;50.678;12.280;2024-02-16T03:50:07;97459.44;;;10.49
79756;BMP280;69239;50.678;12.280;2024-02-16T03:52:32;97455.72;;;10.50
79756;BMP280;69239;50.678;12.280;2024-02-16T03:54:58;97469.34;;;10.52
79756;BMP280;69239;50.678;12.280;2024-02-16T03:57:24;97471.19;;;10.52
79756;BMP280;69239;50.678;12.280;2024-02-16T03:59:49;97462.22;;;10.53
79756;BMP280;69239;50.678;12.280;2024-02-16T04:02:15;97456.97;;;10.53
79756;BMP280;69239;50.678;12.280;2024-02-16T04:04:41;97457.13;;;10.56
79756;BMP280;69239;50.678;12.280;2024-02-16T04:07:06;97467.34;;;10.58
79756;BMP280;69239;50.678;12.280;2024-02-16T04:09:34;97457.13;;;10.56
79756;BMP280;69239;50.678;12.280;2024-02-16T04:12:01;97449.38;;;10.60
79756;BMP280;69239;50.678;12.280;2024-02-16T04:14:27;97445.66;;;10.61
79756;BMP280;69239;50.678;12.280;2024-02-16T04:16:52;97442.25;;;10.60
79756;BMP280;69239;50.678;12.280;2024-02-16T04:19:17;97449.84;;;10.62
79756;BMP280;69239;50.678;12.280;2024-02-16T04:21:43;97454.63;;;10.60
79756;BMP280;69239;50.678;12.280;2024-02-16T04:24:08;97460.06;;;10.63
79756;BMP280;69239;50.678;12.280;2024-02-16T04:26:33;97442.88;;;10.66
79756;BMP280;69239;50.678;12.280;2024-02-16T04:28:59;97447.03;;;10.67
79756;BMP280;69239;50.678;12.280;2024-02-16T04:31:24;97441.19;;;10.70
79756;BMP280;69239;50.678;12.280;2024-02-16T04:33:50;97443.03;;;10.70
79756;BMP280;69239;50.678;12.280;2024-02-16T04:36:16;97443.47;;;10.72
79756;BMP280;69239;50.678;12.280;2024-02-16T04:38:41;97449.53;;;10.72
79756;BMP280;69239;50.678;12.280;2024-02-16T04:41:07;97454.78;;;10.72
79756;BMP280;69239;50.678;12.280;2024-02-16T04:43:33;97457.41;;;10.72
79756;BMP280;69239;50.678;12.280;2024-02-16T04:45:59;97452.31;;;10.76
79756;BMP280;69239;50.678;12.280;2024-02-16T04:48:25;97453.09;;;10.76
79756;BMP280;69239;50.678;12.280;2024-02-16T04:50:50;97447.81;;;10.76
79756;BMP280;69239;50.678;12.280;2024-02-16T04:53:16;97443.03;;;10.78
79756;BMP280;69239;50.678;12.280;2024-02-16T04:55:42;97449.53;;;10.81
79756;BMP280;69239;50.678;12.280;2024-02-16T04:58:07;97446.88;;;10.81
79756;BMP280;69239;50.678;12.280;2024-02-16T05:00:38;97445.97;;;10.85
79756;BMP280;69239;50.678;12.280;2024-02-16T05:03:03;97450.16;;;10.86
79756;BMP280;69239;50.678;12.280;2024-02-16T05:05:29;97443.03;;;10.87
79756;BMP280;69239;50.678;12.280;2024-02-16T05:07:56;97447.53;;;10.86
79756;BMP280;69239;50.678;12.280;2024-02-16T05:10:21;97447.53;;;10.86
79756;BMP280;69239;50.678;12.280;2024-02-16T05:12:46;97448.13;;;10.83
79756;BMP280;69239;50.678;12.280;2024-02-16T05:15:12;97447.06;;;10.84
79756;BMP280;69239;50.678;12.280;2024-02-16T05:17:41;97456.78;;;10.84
79756;BMP280;69239;50.678;12.280;2024-02-16T05:20:12;97460.22;;;10.84
79756;BMP280;69239;50.678;12.280;2024-02-16T05:22:44;97450.28;;;10.81
79756;BMP280;69239;50.678;12.280;2024-02-16T05:25:14;97447.53;;;10.78
79756;BMP280;69239;50.678;12.280;2024-02-16T05:27:39;97459.28;;;10.80
79756;BMP280;69239;50.678;12.280;2024-02-16T05:30:05;97453.09;;;10.76
79756;BMP280;69239;50.678;12.280;2024-02-16T05:32:36;97458.97;;;10.73
79756;BMP280;69239;50.678;12.280;2024-02-16T05:35:05;97460.84;;;10.73
79756;BMP280;69239;50.678;12.280;2024-02-16T05:37:40;97462.25;;;10.70
79756;BMP280;69239;50.678;12.280;2024-02-16T05:40:09;97457.56;;;10.67
79756;BMP280;69239;50.678;12.280;2024-02-16T05:42:46;97459.75;;;10.65
79756;BMP280;69239;50.678;12.280;2024-02-16T05:45:13;97463.47;;;10.64
79756;BMP280;69239;50.678;12.280;2024-02-16T05:47:38;97460.22;;;10.58
79756;BMP280;69239;50.678;12.280;2024-02-16T05:50:04;97464.09;;;10.61
79756;BMP280;69239;50.678;12.280;2024-02-16T05:52:31;97459.44;;;10.58
79756;BMP280;69239;50.678;12.280;2024-02-16T05:54:57;97460.53;;;10.57
79756;BMP280;69239;50.678;12.280;2024-02-16T05:57:22;97457.13;;;10.56
79756;BMP280;69239;50.678;12.280;2024-02-16T05:59:49;97451.69;;;10.53
79756;BMP280;69239;50.678;12.280;2024-02-16T06:02:15;97451.22;;;10.51
79756;BMP280;69239;50.678;12.280;2024-02-16T06:04:41;97448.13;;;10.49
79756;BMP280;69239;50.678;12.280;2024-02-16T06:07:07;97436.97;;;10.52
79756;BMP280;69239;50.678;12.280;2024-02-16T06:09:33;97440.09;;;10.54
79756;BMP280;69239;50.678;12.280;2024-02-16T06:12:04;97435.28;;;10.56
79756;BMP280;69239;50.678;12.280;2024-02-16T06:14:33;97434.19;;;10.57
79756;BMP280;69239;50.678;12.280;2024-02-16T06:16:59;97435.75;;;10.58
79756;BMP280;69239;50.678;12.280;2024-02-16T06:19:25;97438.84;;;10.60
79756;BMP280;69239;50.678;12.280;2024-02-16T06:21:51;97430.47;;;10.58
79756;BMP280;69239;50.678;12.280;2024-02-16T06:24:16;97433.72;;;10.63
79756;BMP280;69239;50.678;12.280;2024-02-16T06:26:42;97436.69;;;10.62
79756;BMP280;69239;50.678;12.280;2024-02-16T06:29:08;97439.94;;;10.68
79756;BMP280;69239;50.678;12.280;2024-02-16T06:31:34;97447.34;;;10.74
79756;BMP280;69239;50.678;12.280;2024-02-16T06:33:59;97434.66;;;10.76
79756;BMP280;69239;50.678;12.280;2024-02-16T06:36:24;97463.16;;;10.91
79756;BMP280;69239;50.678;12.280;2024-02-16T06:38:50;97455.38;;;10.95
79756;BMP280;69239;50.678;12.280;2024-02-16T06:41:16;97460.22;;;11.02
79756;BMP280;69239;50.678;12.280;2024-02-16T06:43:42;97471.06;;;11.09
79756;BMP280;69239;50.678;12.280;2024-02-16T06:46:08;97480.00;;;11.25
79756;BMP280;69239;50.678;12.280;2024-02-16T06:48:33;97480.44;;;11.44
79756;BMP280;69239;50.678;12.280;2024-02-16T06:50:59;97475.41;;;11.60
79756;BMP280;69239;50.678;12.280;2024-02-16T06:53:24;97477.50;;;11.84
79756;BMP280;69239;50.678;12.280;2024-02-16T06:55:50;97493.69;;;12.03
79756;BMP280;69239;50.678;12.280;2024-02-16T06:58:16;97483.41;;;12.40
79756;BMP280;69239;50.678;12.280;2024-02-16T07:00:41;97480.19;;;12.97
79756;BMP280;69239;50.678;12.280;2024-02-16T07:03:07;97480.47;;;13.16
79756;BMP280;69239;50.678;12.280;2024-02-16T07:05:33;97483.31;;;13.11
79756;BMP280;69239;50.678;12.280;2024-02-16T07:07:58;97479.84;;;12.98
79756;BMP280;69239;50.678;12.280;2024-02-16T07:10:24;97481.56;;;12.82
79756;BMP280;69239;50.678;12.280;2024-02-16T07:12:49;97488.19;;;12.67
79756;BMP280;69239;50.678;12.280;2024-02-16T07:15:15;97490.31;;;12.53
79756;BMP280;69239;50.678;12.280;2024-02-16T07:17:40;97488.69;;;12.40
79756;BMP280;69239;50.678;12.280;2024-02-16T07:20:06;97486.88;;;12.32
79756;BMP280;69239;50.678;12.280;2024-02-16T07:22:31;97495.59;;;12.23
79756;BMP280;69239;50.678;12.280;2024-02-16T07:24:58;97488.19;;;12.17
79756;BMP280;69239;50.678;12.280;2024-02-16T07:27:25;97494.63;;;12.07
79756;BMP280;69239;50.678;12.280;2024-02-16T07:29:51;97494.63;;;12.07
79756;BMP280;69239;50.678;12.280;2024-02-16T07:32:16;97491.84;;;12.04
79756;BMP280;69239;50.678;12.280;2024-02-16T07:34:45;97494.19;;;12.05
79756;BMP280;69239;50.678;12.280;2024-02-16T07:37:11;97494.19;;;12.05
79756;BMP280;69239;50.678;12.280;2024-02-16T07:39:37;97488.41;;;12.03
79756;BMP280;69239;50.678;12.280;2024-02-16T07:42:02;97492.63;;;12.04
79756;BMP280;69239;50.678;12.280;2024-02-16T07:44:28;97488.41;;;12.03
79756;BMP280;69239;50.678;12.280;2024-02-16T07:46:53;97484.72;;;12.04
79756;BMP280;69239;50.678;12.280;2024-02-16T07:49:18;97478.66;;;12.04
79756;BMP280;69239;50.678;12.280;2024-02-16T07:51:44;97483.31;;;12.07
79756;BMP280;69239;50.678;12.280;2024-02-16T07:54:09;97477.25;;;12.06
79756;BMP280;69239;50.678;12.280;2024-02-16T07:56:35;97483.56;;;12.14
79756;BMP280;69239;50.678;12.280;2024-02-16T07:59:00;97480.75;;;12.19
79756;BMP280;69239;50.678;12.280;2024-02-16T08:01:26;97489.56;;;12.23
79756;BMP280;69239;50.678;12.280;2024-02-16T08:03:51;97479.25;;;12.30
79756;BMP280;69239;50.678;12.280;2024-02-16T08:06:17;97472.63;;;12.45
79756;BMP280;69239;50.678;12.280;2024-02-16T08:08:46;97476.59;;;12.60
79756;BMP280;69239;50.678;12.280;2024-02-16T08:11:12;97481.16;;;12.71
79756;BMP280;69239;50.678;12.280;2024-02-16T08:13:38;97484.72;;;12.75
79756;BMP280;69239;50.678;12.280;2024-02-16T08:16:03;97490.44;;;12.77
79756;BMP280;69239;50.678;12.280;2024-02-16T08:18:32;97479.88;;;12.77
79756;BMP280;69239;50.678;12.280;2024-02-16T08:20:58;97475.25;;;12.74
79756;BMP280;69239;50.678;12.280;2024-02-16T08:23:23;97467.09;;;12.79
79756;BMP280;69239;50.678;12.280;2024-02-16T08:25:49;97465.53;;;12.78
79756;BMP280;69239;50.678;12.280;2024-02-16T08:28:14;97466.47;;;12.82
79756;BMP280;69239;50.678;12.280;2024-02-16T08:30:39;97472.19;;;12.84
79756;BMP280;69239;50.678;12.280;2024-02-16T08:33:07;97473.72;;;12.85
79756;BMP280;69239;50.678;12.280;2024-02-16T08:35:33;97467.34;;;12.86
79756;BMP280;69239;50.678;12.280;2024-02-16T08:37:58;97460.66;;;12.89
79756;BMP280;69239;50.678;12.280;2024-02-16T08:40:24;97460.50;;;12.85
79756;BMP280;69239;50.678;12.280;2024-02-16T08:42:49;97464.50;;;12.92
79756;BMP280;69239;50.678;12.280;2024-02-16T08:45:15;97459.66;;;12.94
79756;BMP280;69239;50.678;12.280;2024-02-16T08:47:43;97457.03;;;12.94
79756;BMP280;69239;50.678;12.280;2024-02-16T08:50:09;97462.78;;;12.96
79756;BMP280;69239;50.678;12.280;2024-02-16T08:52:34;97457.19;;;12.97
79756;BMP280;69239;50.678;12.280;2024-02-16T08:55:00;97468.50;;;12.98
79756;BMP280;69239;50.678;12.280;2024-02-16T08:57:25;97472.34;;;13.00
79756;BMP280;69239;50.678;12.280;2024-02-16T08:59:50;97483.69;;;13.01
79756;BMP280;69239;50.678;12.280;2024-02-16T09:02:16;97478.88;;;13.03
79756;BMP280;69239;50.678;12.280;2024-02-16T09:04:41;97484.16;;;13.03
79756;BMP280;69239;50.678;12.280;2024-02-16T09:07:07;97479.97;;;13.02
79756;BMP280;69239;50.678;12.280;2024-02-16T09:09:32;97478.53;;;13.04
79756;BMP280;69239;50.678;12.280;2024-02-16T09:11:58;97483.31;;;13.11
79756;BMP280;69239;50.678;12.280;2024-02-16T09:14:24;97478.13;;;13.14
79756;BMP280;69239;50.678;12.280;2024-02-16T09:16:49;97465.22;;;13.13
79756;BMP280;69239;50.678;12.280;2024-02-16T09:19:18;97465.16;;;13.21
79756;BMP280;69239;50.678;12.280;2024-02-16T09:21:45;97451.63;;;13.35
79756;BMP280;69239;50.678;12.280;2024-02-16T09:24:10;97468.63;;;13.59
79756;BMP280;69239;50.678;12.280;2024-02-16T09:26:39;97467.44;;;13.68
79756;BMP280;69239;50.678;12.280;2024-02-16T09:29:05;97472.59;;;13.77
79756;BMP280;69239;50.678;12.280;2024-02-16T09:31:31;97477.66;;;14.06
79756;BMP280;69239;50.678;12.280;2024-02-16T09:33:57;97471.34;;;14.23
79756;BMP280;69239;50.678;12.280;2024-02-16T09:36:22;97470.44;;;14.31
79756;BMP280;69239;50.678;12.280;2024-02-16T09:38:48;97472.53;;;14.38
79756;BMP280;69239;50.678;12.280;2024-02-16T09:41:14;97477.47;;;14.39
79756;BMP280;69239;50.678;12.280;2024-02-16T09:43:41;97483.78;;;14.35
79756;BMP280;69239;50.678;12.280;2024-02-16T09:46:08;97477.41;;;14.36
79756;BMP280;69239;50.678;12.280;2024-02-16T09:48:33;97473.84;;;14.44
79756;BMP280;69239;50.678;12.280;2024-02-16T09:50:59;97481.50;;;14.61
79756;BMP280;69239;50.678;12.280;2024-02-16T09:53:26;97488.69;;;14.88
79756;BMP280;69239;50.678;12.280;2024-02-16T09:55:52;97481.28;;;15.26
79756;BMP280;69239;50.678;12.280;2024-02-16T09:58:18;97483.47;;;16.99
79756;BMP280;69239;50.678;12.280;2024-02-16T10:00:54;97475.28;;;19.20
79756;BMP280;69239;50.678;12.280;2024-02-16T10:03:31;97472.91;;;20.99
79756;BMP280;69239;50.678;12.280;2024-02-16T10:06:12;97464.59;;;22.16
79756;BMP280;69239;50.678;12.280;2024-02-16T10:08:48;97467.66;;;22.73
79756;BMP280;69239;50.678;12.280;2024-02-16T10:11:17;97463.00;;;23.22
79756;BMP280;69239;50.678;12.280;2024-02-16T10:13:59;97464.31;;;23.44
79756;BMP280;69239;50.678;12.280;2024-02-16T10:16:26;97476.66;;;23.38
79756;BMP280;69239;50.678;12.280;2024-02-16T10:19:17;97475.06;;;23.03
79756;BMP280;69239;50.678;12.280;2024-02-16T10:21:43;97477.34;;;22.57
79756;BMP280;69239;50.678;12.280;2024-02-16T10:24:10;97480.78;;;21.84
79756;BMP280;69239;50.678;12.280;2024-02-16T10:26:37;97477.06;;;21.50
79756;BMP280;69239;50.678;12.280;2024-02-16T10:29:16;97487.41;;;21.41
79756;BMP280;69239;50.678;12.280;2024-02-16T10:31:42;97479.41;;;21.12
79756;BMP280;69239;50.678;12.280;2024-02-16T10:34:08;97495.06;;;21.00
79756;BMP280;69239;50.678;12.280;2024-02-16T10:36:39;97485.47;;;20.74
79756;BMP280;69239;50.678;12.280;2024-02-16T10:39:05;97492.31;;;20.39
79756;BMP280;69239;50.678;12.280;2024-02-16T10:41:35;97489.53;;;20.07
79756;BMP280;69239;50.678;12.280;2024-02-16T10:44:03;97483.22;;;19.71
79756;BMP280;69239;50.678;12.280;2024-02-16T10:46:32;97489.53;;;19.46
79756;BMP280;69239;50.678;12.280;2024-02-16T10:48:58;97482.44;;;19.13
79756;BMP280;69239;50.678;12.280;2024-02-16T10:51:28;97482.22;;;18.91
79756;BMP280;69239;50.678;12.280;2024-02-16T10:53:57;97483.59;;;18.71
79756;BMP280;69239;50.678;12.280;2024-02-16T10:56:42;97470.44;;;18.52
79756;BMP280;69239;50.678;12.280;2024-02-16T10:59:09;97484.75;;;18.40
79756;BMP280;69239;50.678;12.280;2024-02-16T11:01:42;97486.28;;;18.38
79756;BMP280;69239;50.678;12.280;2024-02-16T11:04:16;97491.44;;;18.27
79756;BMP280;69239;50.678;12.280;2024-02-16T11:09:30;97478.31;;;18.11
79756;BMP280;69239;50.678;12.280;2024-02-16T11:12:00;97474.41;;;18.02
79756;BMP280;69239;50.678;12.280;2024-02-16T11:14:36;97478.34;;;17.85
79756;BMP280;69239;50.678;12.280;2024-02-16T11:17:15;97472.84;;;17.71
79756;BMP280;69239;50.678;12.280;2024-02-16T11:19:45;97478.56;;;17.73
79756;BMP280;69239;50.678;12.280;2024-02-16T11:22:15;97461.31;;;17.93
79756;BMP280;69239;50.678;12.280;2024-02-16T11:24:48;97465.72;;;18.42
79756;BMP280;69239;50.678;12.280;2024-02-16T11:27:16;97464.84;;;19.08
79756;BMP280;69239;50.678;12.280;2024-02-16T11:29:45;97462.03;;;19.38
79756;BMP280;69239;50.678;12.280;2024-02-16T11:32:10;97469.38;;;19.00
79756;BMP280;69239;50.678;12.280;2024-02-16T11:34:36;97459.91;;;18.66
79756;BMP280;69239;50.678;12.280;2024-02-16T11:37:04;97462.81;;;18.54
79756;BMP280;69239;50.678;12.280;2024-02-16T11:39:30;97461.13;;;18.39
79756;BMP280;69239;50.678;12.280;2024-02-16T11:42:04;97454.97;;;18.31
79756;BMP280;69239;50.678;12.280;2024-02-16T11:44:31;97450.69;;;18.23
79756;BMP280;69239;50.678;12.280;2024-02-16T11:47:00;97460.06;;;18.13
79756;BMP280;69239;50.678;12.280;2024-02-16T11:52:48;97454.53;;;17.66
79756;BMP280;69239;50.678;12.280;2024-02-16T11:55:13;97448.63;;;17.53
79756;BMP280;69239;50.678;12.280;2024-02-16T11:57:40;97457.00;;;17.55
79756;BMP280;69239;50.678;12.280;2024-02-16T12:00:06;97455.91;;;17.86
79756;BMP280;69239;50.678;12.280;2024-02-16T12:02:35;97447.00;;;18.01
79756;BMP280;69239;50.678;12.280;2024-02-16T12:05:01;97448.66;;;18.13
79756;BMP280;69239;50.678;12.280;2024-02-16T12:07:28;97445.88;;;18.06
79756;BMP280;69239;50.678;12.280;2024-02-16T12:09:57;97445.25;;;17.86
79756;BMP280;69239;50.678;12.280;2024-02-16T12:12:24;97446.53;;;17.66
79756;BMP280;69239;50.678;12.280;2024-02-16T12:14:49;97456.03;;;17.40
79756;BMP280;69239;50.678;12.280;2024-02-16T12:17:14;97446.97;;;17.22
79756;BMP280;69239;50.678;12.280;2024-02-16T12:19:47;97444.97;;;17.15
79756;BMP280;69239;50.678;12.280;2024-02-16T12:22:21;97447.06;;;17.03
79756;BMP280;69239;50.678;12.280;2024-02-16T12:24:48;97452.91;;;16.89
79756;BMP280;69239;50.678;12.280;2024-02-16T12:27:15;97446.28;;;16.79
79756;BMP280;69239;50.678;12.280;2024-02-16T12:29:40;97442.66;;;16.68
79756;BMP280;69239;50.678;12.280;2024-02-16T12:32:06;97459.19;;;16.58
79756;BMP280;69239;50.678;12.280;2024-02-16T12:34:32;97475.25;;;16.46
79756;BMP280;69239;50.678;12.280;2024-02-16T12:36:57;97469.34;;;16.33
79756;BMP280;69239;50.678;12.280;2024-02-16T12:39:22;97476.66;;;16.20
79756;BMP280;69239;50.678;12.280;2024-02-16T12:41:47;97480.97;;;16.09
79756;BMP280;69239;50.678;12.280;2024-02-16T12:44:14;97473.47;;;15.96
79756;BMP280;69239;50.678;12.280;2024-02-16T12:46:39;97474.97;;;15.77
79756;BMP280;69239;50.678;12.280;2024-02-16T12:49:05;97478.66;;;15.73
79756;BMP280;69239;50.678;12.280;2024-02-16T12:51:31;97460.63;;;15.63
79756;BMP280;69239;50.678;12.280;2024-02-16T12:53:57;97475.06;;;15.49
79756;BMP280;69239;50.678;12.280;2024-02-16T12:56:22;97463.44;;;15.38
79756;BMP280;69239;50.678;12.280;2024-02-16T12:58:47;97463.25;;;15.31
79756;BMP280;69239;50.678;12.280;2024-02-16T13:01:13;97475.97;;;15.26
79756;BMP280;69239;50.678;12.280;2024-02-16T13:03:38;97477.38;;;15.19
79756;BMP280;69239;50.678;12.280;2024-02-16T13:06:04;97471.28;;;15.19
79756;BMP280;69239;50.678;12.280;2024-02-16T13:08:30;97471.97;;;15.16
79756;BMP280;69239;50.678;12.280;2024-02-16T13:10:57;97479.50;;;15.14
79756;BMP280;69239;50.678;12.280;2024-02-16T13:13:23;97475.22;;;15.09
79756;BMP280;69239;50.678;12.280;2024-02-16T13:15:48;97470.16;;;15.04
79756;BMP280;69239;50.678;12.280;2024-02-16T13:18:14;97476.50;;;15.00
79756;BMP280;69239;50.678;12.280;2024-02-16T13:20:40;97460.06;;;14.94
79756;BMP280;69239;50.678;12.280;2024-02-16T13:23:05;97469.91;;;14.94
79756;BMP280;69239;50.678;12.280;2024-02-16T13:25:30;97462.88;;;14.85
79756;BMP280;69239;50.678;12.280;2024-02-16T13:27:55;97471.91;;;14.84
79756;BMP280;69239;50.678;12.280;2024-02-16T13:30:21;97475.25;;;14.81
79756;BMP280;69239;50.678;12.280;2024-02-16T13:32:46;97476.25;;;14.77
79756;BMP280;69239;50.678;12.280;2024-02-16T13:35:11;97468.88;;;14.70
79756;BMP280;69239;50.678;12.280;2024-02-16T13:37:38;97474.66;;;14.72
79756;BMP280;69239;50.678;12.280;2024-02-16T13:40:05;97484.78;;;14.70
79756;BMP280;69239;50.678;12.280;2024-02-16T13:42:32;97483.56;;;14.68
79756;BMP280;69239;50.678;12.280;2024-02-16T13:44:57;97495.66;;;14.65
79756;BMP280;69239;50.678;12.280;2024-02-16T13:47:23;97488.81;;;14.64
79756;BMP280;69239;50.678;12.280;2024-02-16T13:49:48;97491.44;;;14.64
79756;BMP280;69239;50.678;12.280;2024-02-16T13:52:14;97490.34;;;14.65
79756;BMP280;69239;50.678;12.280;2024-02-16T13:54:40;97488.81;;;14.64
79756;BMP280;69239;50.678;12.280;2024-02-16T13:57:05;97491.88;;;14.66
79756;BMP280;69239;50.678;12.280;2024-02-16T13:59:30;97500.69;;;14.70